createdAt,value
2022-10-23T05:46:39.321Z,80.00
2022-10-23T05:47:39.282Z,88.00
2022-10-23T05:48:39.264Z,96.00
2022-10-23T05:49:39.298Z,108.00
2022-10-23T05:50:39.245Z,116.00
2022-10-23T05:51:39.236Z,124.00
2022-10-23T05:52:39.219Z,136.00
2022-10-23T05:53:41.797Z,148.00
2022-10-23T05:54:39.219Z,164.00
2022-10-23T05:55:39.190Z,180.00
2022-10-23T05:56:39.178Z,192.00
2022-10-23T05:57:39.191Z,208.00
2022-10-23T05:58:39.166Z,224.00
2022-10-23T05:59:39.141Z,240.00
2022-10-23T06:00:39.779Z,260.00
2022-10-23T06:01:39.296Z,268.00
2022-10-23T06:02:39.159Z,272.00
2022-10-23T06:03:39.124Z,280.00
2022-10-23T06:04:39.091Z,292.00
2022-10-23T06:06:39.081Z,352.00
2022-10-23T06:07:39.058Z,384.00
2022-10-23T06:08:39.059Z,408.00
2022-10-23T06:09:39.049Z,428.00
2022-10-23T06:10:39.042Z,436.00
2022-10-23T06:11:39.035Z,448.00
2022-10-23T06:12:39.005Z,472.00
2022-10-23T06:13:38.996Z,500.00
2022-10-23T06:14:38.984Z,504.00
2022-10-23T06:15:38.986Z,520.00
2022-10-23T06:16:38.956Z,520.00
2022-10-23T06:17:38.949Z,528.00
2022-10-23T06:18:38.961Z,544.00
2022-10-23T06:19:38.941Z,560.00
2022-10-23T06:20:38.957Z,576.00
2022-10-23T06:21:38.907Z,604.00
2022-10-23T06:22:38.903Z,620.00
2022-10-23T06:23:38.884Z,636.00
2022-10-23T06:24:38.899Z,664.00
2022-10-23T06:25:38.870Z,672.00
2022-10-23T06:26:38.884Z,696.00
2022-10-23T06:27:38.844Z,708.00
2022-10-23T06:28:38.837Z,704.00
2022-10-23T06:29:38.820Z,688.00
2022-10-23T06:31:39.009Z,732.00
2022-10-23T06:32:38.808Z,772.00
2022-10-23T06:33:38.804Z,828.00
2022-10-23T06:34:38.807Z,860.00
2022-10-23T06:35:39.486Z,936.00
2022-10-23T06:36:39.228Z,1040.00
2022-10-23T06:37:38.780Z,1132.00
2022-10-23T06:38:38.783Z,1204.00
2022-10-23T06:39:38.712Z,1216.00
2022-10-23T06:40:38.699Z,1220.00
2022-10-23T06:41:38.710Z,1256.00
2022-10-23T06:42:38.679Z,1296.00
2022-10-23T06:43:38.678Z,1364.00
2022-10-23T06:44:38.664Z,1488.00
2022-10-23T06:45:38.649Z,1572.00
2022-10-23T06:46:38.635Z,1672.00
2022-10-23T06:47:38.645Z,1776.00
2022-10-23T06:48:38.630Z,1768.00
2022-10-23T06:49:38.621Z,1760.00
2022-10-23T06:50:38.611Z,1776.00
2022-10-23T06:51:38.584Z,1848.00
2022-10-23T06:52:47.410Z,1844.00
2022-10-23T06:53:39.584Z,1700.00
2022-10-23T06:54:38.565Z,1636.00
2022-10-23T06:56:38.538Z,1648.00
2022-10-23T06:57:38.537Z,1636.00
2022-10-23T06:58:38.523Z,1660.00
2022-10-23T06:59:38.502Z,1644.00
2022-10-23T07:00:38.548Z,1652.00
2022-10-23T07:01:38.751Z,1688.00
2022-10-23T07:02:38.471Z,1768.00
2022-10-23T07:03:38.464Z,1804.00
2022-10-23T07:04:38.439Z,1844.00
2022-10-23T07:05:38.441Z,1848.00
2022-10-23T07:06:38.457Z,1816.00
2022-10-23T07:07:38.409Z,1816.00
2022-10-23T07:08:38.419Z,1900.00
2022-10-23T07:09:38.412Z,1980.00
2022-10-23T07:10:38.411Z,1920.00
2022-10-23T07:11:38.368Z,1916.00
2022-10-23T07:12:38.359Z,1948.00
2022-10-23T07:13:38.354Z,2028.00
2022-10-23T07:14:38.354Z,2032.00
2022-10-23T07:15:38.345Z,1996.00
2022-10-23T07:16:38.311Z,2060.00
2022-10-23T07:17:38.300Z,2176.00
2022-10-23T07:18:38.428Z,2404.00
2022-10-23T07:19:38.287Z,2700.00
2022-10-23T07:20:38.280Z,2872.00
2022-10-23T07:21:38.281Z,2916.00
2022-10-23T07:22:38.277Z,2928.00
2022-10-23T07:23:38.235Z,2912.00
2022-10-23T07:24:38.228Z,2928.00
2022-10-23T07:25:38.233Z,2948.00
2022-10-23T07:26:38.265Z,3012.00
2022-10-23T07:27:38.233Z,3120.00
2022-10-23T07:28:38.179Z,3232.00
2022-10-23T07:29:38.172Z,3356.00
2022-10-23T07:30:38.224Z,3440.00
2022-10-23T07:31:38.157Z,3476.00
2022-10-23T07:32:38.149Z,3540.00
2022-10-23T07:33:38.127Z,3600.00
2022-10-23T07:34:38.127Z,3616.00
2022-10-23T07:35:39.331Z,3560.00
2022-10-23T07:36:38.117Z,3568.00
2022-10-23T07:37:38.086Z,3616.00
2022-10-23T07:38:38.094Z,3716.00
2022-10-23T07:39:38.077Z,3672.00
2022-10-23T07:40:38.060Z,3724.00
2022-10-23T07:41:38.062Z,3688.00
2022-10-23T07:42:38.044Z,3656.00
2022-10-23T07:43:38.024Z,3740.00
2022-10-23T07:44:38.009Z,3828.00
2022-10-23T07:45:38.000Z,3896.00
2022-10-23T07:46:38.013Z,3952.00
2022-10-23T07:47:37.986Z,4016.00
2022-10-23T07:48:37.970Z,4060.00
2022-10-23T07:49:37.980Z,4180.00
2022-10-23T07:50:37.955Z,4276.00
2022-10-23T07:51:37.944Z,4396.00
2022-10-23T07:52:37.926Z,4544.00
2022-10-23T07:53:37.948Z,4612.00
2022-10-23T07:54:37.921Z,4696.00
2022-10-23T07:55:37.914Z,4772.00
2022-10-23T07:56:37.900Z,4772.00
2022-10-23T07:57:37.879Z,4772.00
2022-10-23T07:58:37.886Z,4668.00
2022-10-23T07:59:38.102Z,4612.00
2022-10-23T08:00:37.838Z,4576.00
2022-10-23T08:01:37.963Z,4512.00
2022-10-23T08:02:37.876Z,4524.00
2022-10-23T08:03:37.814Z,4460.00
2022-10-23T08:04:37.797Z,4388.00
2022-10-23T08:05:37.792Z,4204.00
2022-10-23T08:06:37.785Z,4180.00
2022-10-23T08:07:37.780Z,4328.00
2022-10-23T08:08:37.786Z,4340.00
2022-10-23T08:09:37.752Z,4520.00
2022-10-23T08:10:37.747Z,4488.00
2022-10-23T08:11:37.726Z,4460.00
2022-10-23T08:12:37.731Z,4644.00
2022-10-23T08:13:37.696Z,4680.00
2022-10-23T08:14:37.693Z,4920.00
2022-10-23T08:15:37.680Z,4920.00
2022-10-23T08:16:37.691Z,4860.00
2022-10-23T08:17:37.691Z,5136.00
2022-10-23T08:18:37.651Z,5348.00
2022-10-23T08:19:37.637Z,5360.00
2022-10-23T08:20:37.632Z,5672.00
2022-10-23T08:21:37.618Z,6584.00
2022-10-23T08:22:37.609Z,8400.00
2022-10-23T08:23:37.596Z,14080.00
2022-10-23T08:24:37.574Z,19456.00
2022-10-23T08:25:37.612Z,21824.00
2022-10-23T08:26:37.584Z,23392.00
2022-10-23T08:27:37.557Z,23904.00
2022-10-23T08:28:37.534Z,25248.00
2022-10-23T08:29:37.541Z,26464.00
2022-10-23T08:30:37.520Z,26688.00
2022-10-23T08:31:37.535Z,27136.00
2022-10-23T08:32:37.501Z,26400.00
2022-10-23T08:33:37.558Z,27168.00
2022-10-23T08:34:37.477Z,28384.00
2022-10-23T08:35:37.461Z,27552.00
2022-10-23T08:36:37.451Z,25760.00
2022-10-23T08:37:37.463Z,25920.00
2022-10-23T08:38:37.444Z,25760.00
2022-10-23T08:39:37.459Z,24768.00
2022-10-23T08:40:37.404Z,26272.00
2022-10-23T08:41:37.415Z,26304.00
2022-10-23T08:42:37.407Z,27840.00
2022-10-23T08:43:37.402Z,25056.00
2022-10-23T08:44:37.375Z,23040.00
2022-10-23T08:45:37.360Z,23072.00
2022-10-23T08:46:37.350Z,21792.00
2022-10-23T08:47:37.340Z,16576.00
2022-10-23T08:48:37.322Z,17568.00
2022-10-23T08:49:37.349Z,12996.00
2022-10-23T08:50:37.311Z,10132.00
2022-10-23T08:51:37.296Z,8000.00
2022-10-23T08:52:37.305Z,9812.00
2022-10-23T08:53:37.314Z,9044.00
2022-10-23T08:54:37.317Z,8080.00
2022-10-23T08:55:37.254Z,7432.00
2022-10-23T08:56:37.255Z,7560.00
2022-10-23T08:57:40.076Z,6912.00
2022-10-23T08:58:38.246Z,5868.00
2022-10-23T08:59:37.221Z,6584.00
2022-10-23T09:00:37.270Z,7260.00
2022-10-23T09:01:37.286Z,6816.00
2022-10-23T09:02:37.176Z,6452.00
2022-10-23T09:03:37.206Z,6232.00
2022-10-23T09:04:37.173Z,6996.00
2022-10-23T09:05:37.175Z,8992.00
2022-10-23T09:06:37.143Z,13060.00
2022-10-23T09:07:37.145Z,12868.00
2022-10-23T09:08:37.130Z,8548.00
2022-10-23T09:09:37.161Z,6420.00
2022-10-23T09:10:37.130Z,5652.00
2022-10-23T09:11:37.085Z,5144.00
2022-10-23T09:12:37.078Z,4836.00
2022-10-23T09:13:37.093Z,4788.00
2022-10-23T09:14:37.077Z,4860.00
2022-10-23T09:15:37.042Z,4996.00
2022-10-23T09:16:37.041Z,5928.00
2022-10-23T09:17:37.022Z,7292.00
2022-10-23T09:18:37.019Z,7284.00
2022-10-23T09:19:37.014Z,5776.00
2022-10-23T09:20:37.025Z,5472.00
2022-10-23T09:21:36.979Z,5352.00
2022-10-23T09:22:36.975Z,5428.00
2022-10-23T09:23:36.962Z,6272.00
2022-10-23T09:24:36.964Z,5512.00
2022-10-23T09:25:36.930Z,5120.00
2022-10-23T09:26:36.935Z,5076.00
2022-10-23T09:27:36.910Z,5184.00
2022-10-23T09:28:36.917Z,5996.00
2022-10-23T09:29:36.903Z,6344.00
2022-10-23T09:30:36.988Z,6908.00
2022-10-23T09:31:36.891Z,7468.00
2022-10-23T09:32:36.874Z,9440.00
2022-10-23T09:33:43.561Z,9744.00
2022-10-23T09:34:36.852Z,8516.00
2022-10-23T09:35:36.829Z,8288.00
2022-10-23T09:36:36.857Z,9524.00
2022-10-23T09:37:36.806Z,9716.00
2022-10-23T09:38:36.808Z,9312.00
2022-10-23T09:39:36.802Z,11128.00
2022-10-23T09:40:36.780Z,10828.00
2022-10-23T09:41:36.766Z,8552.00
2022-10-23T09:42:36.770Z,8164.00
2022-10-23T09:43:36.754Z,6552.00
2022-10-23T09:44:36.747Z,6812.00
2022-10-23T09:45:36.718Z,7656.00
2022-10-23T09:46:36.783Z,10472.00
2022-10-23T09:47:36.702Z,6868.00
2022-10-23T09:48:36.698Z,10100.00
2022-10-23T09:49:36.676Z,8432.00
2022-10-23T09:50:36.694Z,6140.00
2022-10-23T09:51:36.673Z,6376.00
2022-10-23T09:52:36.649Z,5948.00
2022-10-23T09:53:36.664Z,4884.00
2022-10-23T09:54:36.638Z,4720.00
2022-10-23T09:55:36.627Z,4436.00
2022-10-23T09:56:36.704Z,3964.00
2022-10-23T09:57:36.617Z,3944.00
2022-10-23T09:58:36.650Z,3864.00
2022-10-23T09:59:36.565Z,3820.00
2022-10-23T10:00:36.637Z,3872.00
2022-10-23T10:01:36.726Z,3844.00
2022-10-23T10:02:36.569Z,3800.00
2022-10-23T10:03:36.534Z,3836.00
2022-10-23T10:04:36.542Z,3860.00
2022-10-23T10:05:36.509Z,3824.00
2022-10-23T10:06:36.552Z,3824.00
2022-10-23T10:07:36.857Z,3792.00
2022-10-23T10:08:36.468Z,3732.00
2022-10-23T10:09:36.478Z,3916.00
2022-10-23T10:10:36.454Z,4184.00
2022-10-23T10:11:36.450Z,4648.00
2022-10-23T10:12:36.614Z,5256.00
2022-10-23T10:13:36.440Z,5264.00
2022-10-23T10:14:36.406Z,5696.00
2022-10-23T10:15:36.413Z,5696.00
2022-10-23T10:16:36.442Z,5504.00
2022-10-23T10:17:36.396Z,5004.00
2022-10-23T10:18:36.421Z,4872.00
2022-10-23T10:19:36.369Z,5008.00
2022-10-23T10:20:36.350Z,4796.00
2022-10-23T10:21:36.340Z,4900.00
2022-10-23T10:22:36.349Z,4736.00
2022-10-23T10:23:36.307Z,4864.00
2022-10-23T10:24:36.321Z,4828.00
2022-10-23T10:25:36.293Z,4832.00
2022-10-23T10:26:36.300Z,4688.00
2022-10-23T10:27:36.282Z,4608.00
2022-10-23T10:28:36.267Z,4464.00
2022-10-23T10:29:36.244Z,4456.00
2022-10-23T10:30:36.306Z,4344.00
2022-10-23T10:31:36.219Z,4164.00
2022-10-23T10:32:36.219Z,4208.00
2022-10-23T10:33:36.207Z,4404.00
2022-10-23T10:34:36.300Z,4296.00
2022-10-23T10:35:37.065Z,4296.00
2022-10-23T10:36:36.165Z,4360.00
2022-10-23T10:37:36.168Z,4472.00
2022-10-23T10:38:36.145Z,4432.00
2022-10-23T10:39:36.293Z,4408.00
2022-10-23T10:40:36.616Z,4356.00
2022-10-23T10:41:36.274Z,4172.00
2022-10-23T10:42:36.173Z,4136.00
2022-10-23T10:43:36.210Z,4028.00
2022-10-23T10:44:36.094Z,3892.00
2022-10-23T10:45:36.084Z,3872.00
2022-10-23T10:46:38.047Z,3768.00
2022-10-23T10:47:36.055Z,3612.00
2022-10-23T10:48:36.546Z,3520.00
2022-10-23T10:49:37.563Z,3488.00
2022-10-23T10:50:36.039Z,3396.00
2022-10-23T10:51:36.025Z,3372.00
2022-10-23T10:52:36.132Z,3300.00
2022-10-23T10:53:36.587Z,3288.00
2022-10-23T10:54:36.049Z,3164.00
2022-10-23T10:55:36.002Z,3148.00
2022-10-23T10:56:36.062Z,3164.00
2022-10-23T10:57:36.620Z,3252.00
2022-10-23T10:58:35.963Z,3284.00
2022-10-23T10:59:35.924Z,3464.00
2022-10-23T11:00:35.916Z,3564.00
2022-10-23T11:01:36.018Z,3612.00
2022-10-23T11:02:36.015Z,3468.00
2022-10-23T11:03:39.028Z,3268.00
2022-10-23T11:04:35.870Z,2956.00
2022-10-23T11:05:35.865Z,3220.00
2022-10-23T11:06:35.971Z,3476.00
2022-10-23T11:07:35.840Z,4420.00
2022-10-23T11:08:44.591Z,4900.00
2022-10-23T11:09:36.825Z,4960.00
2022-10-23T11:10:35.817Z,4824.00
2022-10-23T11:11:35.801Z,4584.00
2022-10-23T11:12:35.789Z,4620.00
2022-10-23T11:13:35.777Z,4732.00
2022-10-23T11:14:35.781Z,4944.00
2022-10-23T11:15:35.745Z,5016.00
2022-10-23T11:16:35.751Z,5388.00
2022-10-23T11:17:35.728Z,5376.00
2022-10-23T11:18:35.710Z,5340.00
2022-10-23T11:19:35.722Z,5356.00
2022-10-23T11:20:35.712Z,5316.00
2022-10-23T11:21:35.714Z,5328.00
2022-10-23T11:22:35.694Z,5188.00
2022-10-23T11:23:35.660Z,5092.00
2022-10-23T11:24:35.669Z,5012.00
2022-10-23T11:25:35.666Z,5004.00
2022-10-23T11:26:35.623Z,4940.00
2022-10-23T11:27:35.614Z,5004.00
2022-10-23T11:28:35.628Z,5056.00
2022-10-23T11:29:35.603Z,5064.00
2022-10-23T11:30:35.593Z,5152.00
2022-10-23T11:31:35.606Z,5288.00
2022-10-23T11:32:35.578Z,5332.00
2022-10-23T11:33:35.597Z,5356.00
2022-10-23T11:34:35.579Z,5344.00
2022-10-23T11:35:35.528Z,5228.00
2022-10-23T11:36:35.517Z,5152.00
2022-10-23T11:37:35.649Z,5056.00
2022-10-23T11:38:35.522Z,4880.00
2022-10-23T11:39:35.488Z,4832.00
2022-10-23T11:40:35.482Z,4460.00
2022-10-23T11:41:35.474Z,4232.00
2022-10-23T11:42:35.465Z,4132.00
2022-10-23T11:43:35.465Z,3988.00
2022-10-23T11:44:35.439Z,3792.00
2022-10-23T11:45:35.427Z,3724.00
2022-10-23T11:46:44.637Z,3736.00
2022-10-23T11:47:39.783Z,3804.00
2022-10-23T11:48:36.411Z,3796.00
2022-10-23T11:49:35.370Z,3716.00
2022-10-23T11:50:35.360Z,3748.00
2022-10-23T11:51:35.371Z,3628.00
2022-10-23T11:52:41.966Z,3572.00
2022-10-23T11:53:36.339Z,3384.00
2022-10-23T11:54:35.346Z,3332.00
2022-10-23T11:55:35.330Z,3340.00
2022-10-23T11:56:35.317Z,3420.00
2022-10-23T11:57:35.292Z,3500.00
2022-10-23T11:58:35.275Z,3552.00
2022-10-23T11:59:35.275Z,3696.00
2022-10-23T12:00:35.259Z,3600.00
2022-10-23T12:01:35.335Z,3776.00
2022-10-23T12:02:35.266Z,3716.00
2022-10-23T12:03:35.221Z,3892.00
2022-10-23T12:04:35.212Z,4044.00
2022-10-23T12:05:35.206Z,4116.00
2022-10-23T12:06:35.203Z,4116.00
2022-10-23T12:07:35.193Z,4260.00
2022-10-23T12:08:35.168Z,4332.00
2022-10-23T12:09:35.157Z,4140.00
2022-10-23T12:10:35.170Z,4204.00
2022-10-23T12:11:35.150Z,4156.00
2022-10-23T12:12:35.163Z,4008.00
2022-10-23T12:13:35.115Z,3940.00
2022-10-23T12:14:35.108Z,3800.00
2022-10-23T12:15:35.101Z,3684.00
2022-10-23T12:16:35.082Z,3500.00
2022-10-23T12:17:35.104Z,3400.00
2022-10-23T12:18:35.061Z,3192.00
2022-10-23T12:19:35.055Z,3064.00
2022-10-23T12:20:35.039Z,2816.00
2022-10-23T12:21:35.034Z,2800.00
2022-10-23T12:23:35.089Z,2864.00
2022-10-23T12:24:34.994Z,2904.00
2022-10-23T12:25:35.107Z,2828.00
2022-10-23T12:26:34.996Z,2808.00
2022-10-23T12:27:34.970Z,2784.00
2022-10-23T12:28:35.151Z,2776.00
2022-10-23T12:29:34.958Z,2716.00
2022-10-23T12:30:34.950Z,2528.00
2022-10-23T12:31:34.925Z,2436.00
2022-10-23T12:32:34.928Z,2348.00
2022-10-23T12:33:34.901Z,2328.00
2022-10-23T12:34:34.910Z,2344.00
2022-10-23T12:35:35.018Z,2296.00
2022-10-23T12:36:34.869Z,2300.00
2022-10-23T12:37:34.864Z,2332.00
2022-10-23T12:38:36.338Z,2368.00
2022-10-23T12:39:34.841Z,2404.00
2022-10-23T12:40:34.834Z,2476.00
2022-10-23T12:41:34.834Z,2524.00
2022-10-23T12:42:34.842Z,2556.00
2022-10-23T12:43:34.794Z,2616.00
2022-10-23T12:44:34.786Z,2656.00
2022-10-23T12:45:34.782Z,2716.00
2022-10-23T12:46:34.762Z,2796.00
2022-10-23T12:47:34.770Z,2836.00
2022-10-23T12:48:34.758Z,2920.00
2022-10-23T12:49:34.729Z,2952.00
2022-10-23T12:50:34.727Z,2960.00
2022-10-23T12:51:34.720Z,2964.00
2022-10-23T12:52:34.692Z,2968.00
2022-10-23T12:53:34.679Z,2952.00
2022-10-23T12:54:34.693Z,2916.00
2022-10-23T12:55:36.004Z,2888.00
2022-10-23T12:56:35.358Z,2872.00
2022-10-23T12:57:34.651Z,2868.00
2022-10-23T12:58:34.650Z,2836.00
2022-10-23T12:59:34.629Z,2776.00
2022-10-23T13:00:34.612Z,2724.00
2022-10-23T13:01:34.762Z,2660.00
2022-10-23T13:02:34.731Z,2600.00
2022-10-23T13:03:34.583Z,2544.00
2022-10-23T13:04:34.561Z,2512.00
2022-10-23T13:05:34.554Z,2500.00
2022-10-23T13:06:34.550Z,2492.00
2022-10-23T13:07:34.559Z,2464.00
2022-10-23T13:08:34.532Z,2428.00
2022-10-23T13:09:34.514Z,2416.00
2022-10-23T13:10:34.499Z,2424.00
2022-10-23T13:11:34.498Z,2440.00
2022-10-23T13:12:34.504Z,2444.00
2022-10-23T13:13:34.491Z,2452.00
2022-10-23T13:14:34.473Z,2440.00
2022-10-23T13:15:34.443Z,2424.00
2022-10-23T13:16:34.444Z,2400.00
2022-10-23T13:17:34.430Z,2360.00
2022-10-23T13:18:34.419Z,2296.00
2022-10-23T13:19:34.418Z,2256.00
2022-10-23T13:20:34.396Z,2216.00
2022-10-23T13:21:34.385Z,2212.00
2022-10-23T13:22:34.371Z,2176.00
2022-10-23T13:23:34.373Z,2172.00
2022-10-23T13:24:34.349Z,2204.00
2022-10-23T13:25:34.366Z,2224.00
2022-10-23T13:26:34.329Z,2200.00
2022-10-23T13:27:34.318Z,2228.00
2022-10-23T13:28:34.312Z,2228.00
2022-10-23T13:29:34.293Z,2292.00
2022-10-23T13:30:34.300Z,2360.00
2022-10-23T13:31:34.299Z,2488.00
2022-10-23T13:32:34.270Z,2564.00
2022-10-23T13:33:34.260Z,2684.00
2022-10-23T13:34:34.253Z,2732.00
2022-10-23T13:35:34.272Z,2744.00
2022-10-23T13:36:34.223Z,2836.00
2022-10-23T13:37:34.269Z,2896.00
2022-10-23T13:38:34.198Z,2896.00
2022-10-23T13:39:34.187Z,2860.00
2022-10-23T13:40:34.199Z,2760.00
2022-10-23T13:41:34.175Z,2644.00
2022-10-23T13:42:34.161Z,2488.00
2022-10-23T13:43:34.160Z,2336.00
2022-10-23T13:44:34.128Z,2284.00
2022-10-23T13:45:34.123Z,2220.00
2022-10-23T13:46:34.134Z,2168.00
2022-10-23T13:47:34.111Z,2132.00
2022-10-23T13:48:34.109Z,2096.00
2022-10-23T13:49:34.076Z,2088.00
2022-10-23T13:50:34.073Z,2012.00
2022-10-23T13:51:36.617Z,1976.00
2022-10-23T13:52:35.061Z,2012.00
2022-10-23T13:53:34.081Z,2020.00
2022-10-23T13:54:34.024Z,1976.00
2022-10-23T13:55:34.019Z,1996.00
2022-10-23T13:56:34.019Z,1996.00
2022-10-23T13:57:33.994Z,1988.00
2022-10-23T13:58:33.988Z,1944.00
2022-10-23T13:59:33.988Z,1952.00
2022-10-23T14:00:33.963Z,1984.00
2022-10-23T14:01:34.054Z,2020.00
2022-10-23T14:02:33.996Z,2064.00
2022-10-23T14:03:33.933Z,2056.00
2022-10-23T14:04:33.928Z,2040.00
2022-10-23T14:05:33.920Z,1992.00
2022-10-23T14:06:33.903Z,1916.00
2022-10-23T14:07:33.883Z,1808.00
2022-10-23T14:08:33.871Z,1696.00
2022-10-23T14:09:33.871Z,1580.00
2022-10-23T14:10:33.877Z,1488.00
2022-10-23T14:11:33.848Z,1428.00
2022-10-23T14:12:33.833Z,1384.00
2022-10-23T14:13:33.834Z,1336.00
2022-10-23T14:14:33.813Z,1308.00
2022-10-23T14:15:33.799Z,1264.00
2022-10-23T14:16:33.803Z,1228.00
2022-10-23T14:17:33.793Z,1208.00
2022-10-23T14:18:33.791Z,1200.00
2022-10-23T14:19:33.825Z,1204.00
2022-10-23T14:20:33.785Z,1232.00
2022-10-23T14:21:33.739Z,1260.00
2022-10-23T14:22:33.741Z,1268.00
2022-10-23T14:23:33.718Z,1260.00
2022-10-23T14:24:33.712Z,1236.00
2022-10-23T14:25:33.723Z,1200.00
2022-10-23T14:26:33.696Z,1188.00
2022-10-23T14:27:33.675Z,1168.00
2022-10-23T14:28:33.709Z,1180.00
2022-10-23T14:29:33.657Z,1224.00
2022-10-23T14:30:33.680Z,1228.00
2022-10-23T14:31:33.646Z,1220.00
2022-10-23T14:32:33.635Z,1200.00
2022-10-23T14:33:33.614Z,1208.00
2022-10-23T14:34:33.633Z,1224.00
2022-10-23T14:35:33.596Z,1196.00
2022-10-23T14:36:43.208Z,1240.00
2022-10-23T14:37:34.597Z,1324.00
2022-10-23T14:38:33.567Z,1260.00
2022-10-23T14:39:33.552Z,1276.00
2022-10-23T14:40:33.528Z,1276.00
2022-10-23T14:41:33.527Z,1280.00
2022-10-23T14:42:33.957Z,1264.00
2022-10-23T14:43:33.518Z,1232.00
2022-10-23T14:44:33.565Z,1196.00
2022-10-23T14:45:33.533Z,1160.00
2022-10-23T14:46:33.470Z,1100.00
2022-10-23T14:47:33.465Z,1064.00
2022-10-23T14:48:33.444Z,1040.00
2022-10-23T14:49:33.467Z,1020.00
2022-10-23T14:50:33.448Z,1008.00
2022-10-23T14:51:33.421Z,992.00
2022-10-23T14:52:33.421Z,960.00
2022-10-23T14:53:33.413Z,920.00
2022-10-23T14:54:33.383Z,892.00
2022-10-23T14:55:33.384Z,860.00
2022-10-23T14:56:33.357Z,824.00
2022-10-23T14:57:33.352Z,784.00
2022-10-23T14:58:33.361Z,752.00
2022-10-23T14:59:33.342Z,732.00
2022-10-23T15:00:33.338Z,720.00
2022-10-23T15:01:33.484Z,712.00
2022-10-23T15:02:33.305Z,700.00
2022-10-23T15:03:33.283Z,692.00
2022-10-23T15:04:33.281Z,688.00
2022-10-23T15:05:33.277Z,684.00
2022-10-23T15:06:33.273Z,672.00
2022-10-23T15:07:33.268Z,656.00
2022-10-23T15:08:33.237Z,644.00
2022-10-23T15:09:33.223Z,632.00
2022-10-23T15:10:33.214Z,612.00
2022-10-23T15:11:33.213Z,596.00
2022-10-23T15:12:33.214Z,580.00
2022-10-23T15:13:33.185Z,560.00
2022-10-23T15:14:33.177Z,536.00
2022-10-23T15:15:33.171Z,512.00
2022-10-23T15:16:33.148Z,484.00
2022-10-23T15:17:33.157Z,456.00
2022-10-23T15:18:33.188Z,432.00
2022-10-23T15:19:33.132Z,400.00
2022-10-23T15:20:33.121Z,372.00
2022-10-23T15:21:33.115Z,348.00
2022-10-23T15:22:33.107Z,328.00
2022-10-23T15:23:33.092Z,316.00
2022-10-23T15:24:33.061Z,308.00
2022-10-23T15:25:33.063Z,296.00
2022-10-23T15:26:33.050Z,288.00
2022-10-23T15:27:33.054Z,280.00
2022-10-23T15:28:33.082Z,264.00
2022-10-23T15:29:33.021Z,256.00
2022-10-23T15:30:33.002Z,244.00
2022-10-23T15:31:32.989Z,224.00
2022-10-23T15:32:32.985Z,212.00
2022-10-23T15:33:32.982Z,200.00
2022-10-23T15:34:32.960Z,192.00
2022-10-23T15:35:32.943Z,180.00
2022-10-23T15:36:32.937Z,168.00
2022-10-23T15:37:32.928Z,152.00
2022-10-23T15:38:32.948Z,144.00
2022-10-23T15:39:32.923Z,132.00
2022-10-23T15:40:33.058Z,116.00
2022-10-23T15:41:32.880Z,104.00
2022-10-23T15:42:32.863Z,96.00
2022-10-23T15:43:32.863Z,88.00
2022-10-23T15:44:32.855Z,80.00
2022-10-23T15:45:32.832Z,72.00
2022-10-23T15:46:32.838Z,68.00
2022-10-23T15:47:32.822Z,64.00
2022-10-23T15:48:32.798Z,60.00
2022-10-23T15:49:32.800Z,56.00
2022-10-23T15:50:32.791Z,52.00
2022-10-23T15:51:32.775Z,48.00
2022-10-23T15:52:32.779Z,44.00
2022-10-23T15:53:32.759Z,44.00
2022-10-23T15:54:33.046Z,40.00
2022-10-23T15:55:32.737Z,36.00
2022-10-23T15:56:32.748Z,32.00
2022-10-23T15:57:32.710Z,28.00
2022-10-23T15:58:32.705Z,24.00
2022-10-23T15:59:32.685Z,20.00
2022-10-23T16:00:32.712Z,20.00
2022-10-23T16:01:32.801Z,20.00
2022-10-23T16:02:32.824Z,12.00
2022-10-23T16:03:32.655Z,12.00
2022-10-23T16:04:32.685Z,12.00
2022-10-23T16:05:32.680Z,12.00
2022-10-23T16:06:32.709Z,8.00
2022-10-23T16:07:32.649Z,8.00
2022-10-23T16:08:32.606Z,4.00
2022-10-23T16:09:32.585Z,4.00
2022-10-23T16:10:32.590Z,4.00
2022-10-23T16:11:32.556Z,0.00
2022-10-23T16:12:32.567Z,4.00
2022-10-23T16:13:32.613Z,4.00
2022-10-23T16:14:32.532Z,4.00
2022-10-23T16:15:32.519Z,0.00
2022-10-23T16:16:32.509Z,0.00
2022-10-23T16:17:32.497Z,0.00
2022-10-23T16:18:32.517Z,0.00
2022-10-23T16:19:32.502Z,0.00
2022-10-23T16:20:32.465Z,0.00
2022-10-23T16:21:32.447Z,0.00
2022-10-23T16:22:32.435Z,0.00
2022-10-23T16:23:32.428Z,0.00
2022-10-23T16:24:32.446Z,0.00
2022-10-23T16:26:32.411Z,0.00
2022-10-23T16:27:32.382Z,0.00
2022-10-23T16:28:32.389Z,0.00
2022-10-23T16:29:32.366Z,0.00
2022-10-23T16:30:32.369Z,0.00
2022-10-23T16:31:32.346Z,0.00
2022-10-23T16:32:32.342Z,0.00
2022-10-23T16:33:32.326Z,0.00
2022-10-23T16:34:32.361Z,0.00
2022-10-23T16:35:32.298Z,0.00
2022-10-23T16:36:32.284Z,0.00
2022-10-23T16:37:32.282Z,0.00
2022-10-23T16:38:32.297Z,0.00
2022-10-23T16:39:32.261Z,0.00
2022-10-23T16:40:32.247Z,0.00
2022-10-23T16:41:32.235Z,0.00
2022-10-23T16:42:32.233Z,0.00
2022-10-23T16:43:32.257Z,0.00
2022-10-23T16:44:32.209Z,0.00
2022-10-23T16:45:34.454Z,0.00
2022-10-23T16:46:32.183Z,0.00
2022-10-23T16:47:32.169Z,0.00
2022-10-23T16:48:32.152Z,0.00
2022-10-23T16:49:32.194Z,0.00
2022-10-23T16:50:32.156Z,0.00
2022-10-23T16:51:32.132Z,0.00
2022-10-23T16:52:32.127Z,0.00
2022-10-23T16:53:32.103Z,0.00
2022-10-23T16:54:32.096Z,0.00
2022-10-23T16:55:32.083Z,0.00
2022-10-23T16:56:32.076Z,0.00
2022-10-23T16:57:32.061Z,0.00
2022-10-23T16:58:32.074Z,0.00
2022-10-23T16:59:32.054Z,0.00
2022-10-23T17:00:32.052Z,0.00
2022-10-23T17:01:32.099Z,0.00
2022-10-23T17:02:32.128Z,0.00
2022-10-23T17:03:32.000Z,0.00
2022-10-23T17:04:31.980Z,0.00
2022-10-23T17:05:31.996Z,0.00
2022-10-23T17:06:31.965Z,0.00
2022-10-23T17:07:31.959Z,0.00
2022-10-23T17:08:31.979Z,0.00
2022-10-23T17:09:31.947Z,0.00
2022-10-23T17:10:31.917Z,0.00
2022-10-23T17:11:31.896Z,0.00
2022-10-23T17:12:31.892Z,0.00
2022-10-23T17:13:31.932Z,0.00
2022-10-23T17:14:31.920Z,0.00
2022-10-23T17:15:31.941Z,0.00
2022-10-23T17:16:31.853Z,0.00
2022-10-23T17:17:31.836Z,0.00
2022-10-23T17:18:31.837Z,0.00
2022-10-23T17:19:44.186Z,0.00
2022-10-23T17:20:32.832Z,0.00
2022-10-23T17:21:31.787Z,0.00
2022-10-23T17:22:31.785Z,0.00
2022-10-23T17:23:31.789Z,0.00
2022-10-23T17:24:31.805Z,0.00
2022-10-23T17:25:31.779Z,0.00
2022-10-23T17:26:31.746Z,0.00
2022-10-23T17:27:31.754Z,0.00
2022-10-23T17:28:31.715Z,0.00
2022-10-23T17:29:31.711Z,0.00
2022-10-23T17:30:31.725Z,0.00
2022-10-23T17:31:31.690Z,0.00
2022-10-23T17:32:31.680Z,0.00
2022-10-23T17:33:31.682Z,0.00
2022-10-23T17:34:31.655Z,0.00
2022-10-23T17:35:31.683Z,0.00
2022-10-23T17:36:31.630Z,0.00
2022-10-23T17:37:31.648Z,0.00
2022-10-23T17:38:31.619Z,0.00
2022-10-23T17:39:31.605Z,0.00
2022-10-23T17:40:31.591Z,0.00
2022-10-23T17:41:31.577Z,0.00
2022-10-23T17:42:31.582Z,0.00
2022-10-23T17:43:31.579Z,0.00
2022-10-23T17:44:31.545Z,0.00
2022-10-23T17:45:31.558Z,0.00
2022-10-23T17:46:31.538Z,0.00
2022-10-23T17:47:40.799Z,0.00
2022-10-23T17:48:31.497Z,0.00
2022-10-23T17:49:31.482Z,0.00
2022-10-23T17:50:31.490Z,0.00
2022-10-23T17:51:31.459Z,0.00
2022-10-23T17:52:31.442Z,0.00
2022-10-23T17:53:31.451Z,0.00
2022-10-23T17:54:31.418Z,0.00
2022-10-23T17:55:31.410Z,0.00
2022-10-23T17:56:31.426Z,0.00
2022-10-23T17:57:31.388Z,0.00
2022-10-23T17:58:31.379Z,0.00
2022-10-23T17:59:31.372Z,0.00
2022-10-23T18:00:31.392Z,0.00
2022-10-23T18:01:31.486Z,0.00
2022-10-23T18:02:31.446Z,0.00
2022-10-23T18:03:31.321Z,0.00
2022-10-23T18:04:31.316Z,0.00
2022-10-23T18:05:31.327Z,0.00
2022-10-23T18:06:31.312Z,0.00
2022-10-23T18:07:31.313Z,0.00
2022-10-23T18:08:31.263Z,0.00
2022-10-23T18:09:31.258Z,0.00
2022-10-23T18:10:31.251Z,0.00
2022-10-23T18:11:31.234Z,0.00